Urgench, Uzbekistan
Current Conditions -  °F | °C
As of 11:00 PM on Saturday 25 Oct 2014 (Local Time) from UTNU Reporting Station
Clear Clear  
Wind Chill: 43°   Ceiling: Unl
Heat Index: 48°   Visibility: 6mi
Dew Point: 32°   Wind: 11mph
Humidity: 54%   Direction: 20°NNE
Pressure: 29.97"   Gusts: NA
Location:  41.55°N, 60.62°E
Report Text: UTNU 251800Z 02005MPS 360V060 CAVOK 09/00 Q1015 R31/CLRD70NOSIG
Loading
Personal Weather Stations






























Interactive Weather Map
Tropical Storm Tracking
New forecast layout! Learn more

10-Day Weather Forecast

Advertisements
Track Severe Weather on mobile